Time;durP1;ratioP1;P1;durP2;ratioP2;P2;SDS_P1;SDS_P2;PMS_P1;PMS_P2;Temp;Humidity;BMP_temperature;BMP_pressure;BME280_temperature;BME280_humidity;BME280_pressure;Samples;Min_cycle;Max_cycle;Signal;HPM_P1;HPM_P2
2022/10/30 00:00:43;;;;;;;0.40;0.20;;;;;;;12.25;49.36;96089.00;5133763;27;20438;-53
2022/10/30 00:03:12;;;;;;;0.70;0.60;;;;;;;12.21;49.51;96086.06;5133312;27;20433;-53
2022/10/30 00:05:43;;;;;;;0.80;0.50;;;;;;;12.29;49.22;96088.22;5133239;27;20465;-53
2022/10/30 00:08:13;;;;;;;0.43;0.33;;;;;;;11.96;51.35;96088.63;5133566;27;20432;-53
2022/10/30 00:10:41;;;;;;;0.60;0.30;;;;;;;11.94;51.09;96082.78;5133173;27;20426;-54
2022/10/30 00:13:11;;;;;;;0.40;0.30;;;;;;;11.86;51.51;96084.06;5132616;27;20478;-53
2022/10/30 00:15:46;;;;;;;0.50;0.33;;;;;;;11.99;51.98;96080.13;5133165;27;20440;-53
2022/10/30 00:18:14;;;;;;;0.40;0.40;;;;;;;12.06;50.50;96083.34;5133130;27;20433;-53
2022/10/30 00:20:42;;;;;;;0.60;0.40;;;;;;;12.04;51.16;96074.84;5133411;27;20429;-53
2022/10/30 00:23:11;;;;;;;0.40;0.20;;;;;;;12.23;50.65;96078.63;5133054;27;20437;-53
2022/10/30 00:25:39;;;;;;;0.50;0.40;;;;;;;11.84;50.92;96072.88;5132870;27;20968;-53
2022/10/30 00:28:08;;;;;;;0.40;0.20;;;;;;;11.24;52.31;96075.13;5133171;27;20445;-53
2022/10/30 00:30:37;;;;;;;0.40;0.40;;;;;;;11.62;51.11;96076.69;5132920;27;20429;-54
2022/10/30 00:33:07;;;;;;;0.40;0.30;;;;;;;11.97;50.67;96067.09;5133053;27;20484;-53
2022/10/30 00:35:35;;;;;;;0.40;0.40;;;;;;;12.22;49.55;96069.03;5131993;27;20424;-53
2022/10/30 00:38:03;;;;;;;0.40;0.30;;;;;;;12.09;50.13;96062.34;5133277;27;20438;-53
2022/10/30 00:40:32;;;;;;;0.87;0.87;;;;;;;11.90;50.68;96071.03;5132996;27;20428;-53
2022/10/30 00:43:00;;;;;;;0.40;0.30;;;;;;;11.55;51.61;96060.22;5132432;27;20480;-53
2022/10/30 00:45:29;;;;;;;0.40;0.20;;;;;;;11.44;51.76;96065.44;5133026;27;20425;-54
2022/10/30 00:48:01;;;;;;;0.73;0.70;;;;;;;11.57;51.84;96066.06;5132655;27;20433;-54
2022/10/30 00:50:36;;;;;;;0.40;0.30;;;;;;;11.83;51.59;96055.34;5132752;27;20453;-53
2022/10/30 00:53:07;;;;;;;0.40;0.23;;;;;;;11.89;51.29;96070.25;5132583;27;20601;-53
2022/10/30 00:55:39;;;;;;;0.80;0.30;;;;;;;11.88;50.66;96057.22;5132663;27;20426;-53
2022/10/30 00:58:12;;;;;;;0.40;0.20;;;;;;;11.83;50.82;96046.59;5132907;27;20434;-53
2022/10/30 01:00:43;;;;;;;1.37;0.30;;;;;;;11.70;50.36;96036.41;5132757;27;20429;-53
2022/10/30 01:03:12;;;;;;;0.47;0.30;;;;;;;11.70;50.59;96053.16;5132005;27;21019;-53
2022/10/30 01:05:46;;;;;;;1.50;0.40;;;;;;;11.69;50.97;96048.91;5132096;27;20431;-53
2022/10/30 01:08:14;;;;;;;0.50;0.50;;;;;;;11.44;52.75;96049.53;5132529;27;20430;-53
2022/10/30 01:10:44;;;;;;;0.40;0.20;;;;;;;11.53;53.28;96049.06;5132436;27;20434;-53
2022/10/30 01:13:12;;;;;;;0.40;0.30;;;;;;;11.56;52.44;96035.25;5132395;27;20465;-53
2022/10/30 01:15:52;;;;;;;0.77;0.37;;;;;;;11.62;51.70;96047.50;5132655;27;20441;-54
2022/10/30 01:18:34;;;;;;;0.50;0.30;;;;;;;11.35;52.18;96045.78;5132671;27;20438;-53
2022/10/30 01:21:23;;;;;;;0.67;0.67;;;;;;;11.34;52.68;96043.34;5132206;27;20430;-53
2022/10/30 01:24:02;;;;;;;0.40;0.30;;;;;;;11.39;52.41;96041.53;5132356;27;20784;-53
2022/10/30 01:26:43;;;;;;;0.50;0.30;;;;;;;11.41;52.51;96042.06;5136167;27;20473;-53
2022/10/30 01:29:28;;;;;;;0.60;0.30;;;;;;;11.25;52.72;96044.91;5135625;27;21190;-54
2022/10/30 01:32:12;;;;;;;0.40;0.30;;;;;;;10.56;55.54;96049.34;5136213;27;20425;-54
2022/10/30 01:34:47;;;;;;;0.50;0.50;;;;;;;9.58;58.22;96045.03;5136099;27;20429;-54
2022/10/30 01:37:22;;;;;;;0.50;0.47;;;;;;;9.49;59.20;96044.66;5136431;27;20436;-53
2022/10/30 01:39:52;;;;;;;0.60;0.50;;;;;;;9.10;60.69;96039.59;5136078;27;20426;-53
2022/10/30 01:42:54;;;;;;;0.77;0.40;;;;;;;8.64;63.67;96044.16;5136384;27;20897;-53
2022/10/30 01:45:31;;;;;;;0.60;0.30;;;;;;;8.57;64.69;96045.34;5072420;28;20427;-53
2022/10/30 01:48:27;;;;;;;0.90;0.90;;;;;;;8.77;65.04;96038.56;5072404;28;20826;-53
2022/10/30 01:51:00;;;;;;;3.13;1.43;;;;;;;8.85;64.52;96040.78;5116891;27;20434;-54
2022/10/30 01:53:44;;;;;;;0.40;0.20;;;;;;;9.29;62.95;96038.28;5135694;27;20477;-53
2022/10/30 01:56:26;;;;;;;0.50;0.40;;;;;;;9.40;62.33;96034.75;5135490;27;20439;-54
2022/10/30 01:59:00;;;;;;;0.70;0.70;;;;;;;9.69;61.03;96033.53;5135806;27;20421;-53
2022/10/30 02:01:33;;;;;;;0.50;0.30;;;;;;;9.43;61.98;96040.34;5135704;27;21089;-53
2022/10/30 02:04:02;;;;;;;0.77;0.77;;;;;;;9.61;61.21;96041.13;5135649;27;20918;-54
2022/10/30 02:06:36;;;;;;;0.60;0.40;;;;;;;9.78;60.61;96041.84;5135580;27;20445;-54
2022/10/30 02:09:06;;;;;;;0.40;0.30;;;;;;;9.85;59.96;96039.81;5135881;27;20424;-53
2022/10/30 02:11:36;;;;;;;0.40;0.30;;;;;;;10.15;58.40;96014.50;5135610;27;21122;-53
2022/10/30 02:14:06;;;;;;;0.40;0.30;;;;;;;9.61;60.79;96028.69;5135416;27;20466;-53
2022/10/30 02:16:38;;;;;;;4.50;0.77;;;;;;;10.17;58.60;96023.00;5135189;27;20431;-53
2022/10/30 02:19:07;;;;;;;0.40;0.20;;;;;;;10.00;59.40;96021.44;5135035;27;20434;-53
2022/10/30 02:21:36;;;;;;;0.97;0.40;;;;;;;9.87;59.03;96024.47;5135095;27;20816;-53
2022/10/30 02:24:06;;;;;;;0.40;0.30;;;;;;;9.81;58.74;96026.28;5135266;27;20429;-53
2022/10/30 02:26:34;;;;;;;0.30;0.20;;;;;;;9.89;59.01;96025.06;5134879;27;20481;-53
2022/10/30 02:29:02;;;;;;;0.30;0.20;;;;;;;9.69;59.83;96030.88;5135050;27;20436;-53
2022/10/30 02:31:31;;;;;;;0.50;0.30;;;;;;;9.84;59.27;96027.63;5135135;27;20437;-53
2022/10/30 02:33:59;;;;;;;0.40;0.30;;;;;;;10.04;57.89;96022.56;5134658;27;20477;-53
2022/10/30 02:36:27;;;;;;;0.50;0.30;;;;;;;10.27;57.30;96032.91;5133467;27;20424;-54
2022/10/30 02:38:57;;;;;;;3.80;0.83;;;;;;;10.25;57.65;96034.19;5133880;27;20421;-53
2022/10/30 02:41:25;;;;;;;0.40;0.20;;;;;;;10.28;58.16;96034.50;5134657;27;20426;-53
2022/10/30 02:43:54;;;;;;;0.50;0.40;;;;;;;10.14;57.78;96006.81;5133940;27;20435;-53
2022/10/30 02:46:22;;;;;;;0.40;0.33;;;;;;;10.13;58.95;96037.81;5134886;27;20464;-53
2022/10/30 02:48:50;;;;;;;0.60;0.60;;;;;;;8.93;61.92;96027.19;5134571;27;20801;-53
2022/10/30 02:51:19;;;;;;;1.67;0.40;;;;;;;9.61;61.46;96035.81;5134702;27;20791;-53
2022/10/30 02:53:47;;;;;;;0.40;0.40;;;;;;;9.68;60.55;96028.50;5134315;27;20473;-53
2022/10/30 02:56:17;;;;;;;0.50;0.40;;;;;;;9.95;58.94;96030.16;5134385;27;20911;-53
2022/10/30 02:58:45;;;;;;;0.40;0.20;;;;;;;10.34;57.66;96027.41;5134339;27;20449;-53
2022/10/30 03:01:15;;;;;;;0.40;0.40;;;;;;;10.25;57.57;96005.84;5134626;27;20427;-53
2022/10/30 03:03:44;;;;;;;0.40;0.40;;;;;;;10.48;57.10;96037.34;5134141;27;20433;-53
2022/10/30 03:06:15;;;;;;;0.40;0.30;;;;;;;10.56;56.26;96028.16;5134228;27;20430;-53
2022/10/30 03:08:44;;;;;;;0.40;0.20;;;;;;;10.36;56.82;95998.81;5134406;27;20437;-53
2022/10/30 03:11:15;;;;;;;0.40;0.30;;;;;;;10.35;56.80;96027.16;5134421;27;20422;-53
2022/10/30 03:13:46;;;;;;;0.50;0.40;;;;;;;10.38;56.19;96015.25;5133887;27;20475;-54
2022/10/30 03:16:16;;;;;;;0.40;0.20;;;;;;;10.57;56.32;96016.50;5133945;27;20935;-53
2022/10/30 03:18:45;;;;;;;0.37;0.23;;;;;;;10.66;56.25;96015.00;5134253;27;20963;-53
2022/10/30 03:21:14;;;;;;;0.63;0.63;;;;;;;10.50;56.03;96018.56;5133702;27;20444;-53
2022/10/30 03:23:43;;;;;;;0.93;0.93;;;;;;;10.38;56.79;96017.91;5134078;27;20425;-53
2022/10/30 03:26:11;;;;;;;0.40;0.30;;;;;;;10.47;56.25;96016.41;5133436;27;20487;-53
2022/10/30 03:28:40;;;;;;;0.50;0.40;;;;;;;10.43;56.40;96021.41;5133561;27;20567;-53
2022/10/30 03:31:11;;;;;;;0.40;0.20;;;;;;;10.55;56.56;96018.63;5133921;27;20425;-55
2022/10/30 03:33:40;;;;;;;0.40;0.30;;;;;;;10.44;56.46;96011.63;5133826;27;20469;-53
2022/10/30 03:36:11;;;;;;;0.40;0.27;;;;;;;9.92;58.06;96019.25;5133349;27;20933;-53
2022/10/30 03:38:39;;;;;;;0.40;0.30;;;;;;;9.92;57.79;96014.75;5133550;27;20795;-53
2022/10/30 03:41:07;;;;;;;0.40;0.30;;;;;;;10.08;57.78;96016.53;5133318;27;20445;-53
2022/10/30 03:43:36;;;;;;;0.40;0.20;;;;;;;9.96;58.14;96023.81;5133464;27;20423;-53
2022/10/30 03:46:04;;;;;;;0.40;0.40;;;;;;;10.06;58.22;96025.78;5133600;27;20418;-53
2022/10/30 03:48:34;;;;;;;0.40;0.20;;;;;;;10.13;57.70;96016.63;5133232;27;20434;-53
2022/10/30 03:51:03;;;;;;;0.30;0.20;;;;;;;10.30;57.09;96016.50;5133520;27;20807;-53
2022/10/30 03:53:31;;;;;;;1.17;0.30;;;;;;;10.14;56.15;96009.47;5133166;27;21011;-53
2022/10/30 03:56:01;;;;;;;1.07;0.30;;;;;;;10.32;56.57;96026.88;5133098;27;20958;-53
2022/10/30 03:58:30;;;;;;;0.50;0.50;;;;;;;10.20;56.51;96022.50;5133468;27;20435;-53
2022/10/30 04:01:01;;;;;;;0.30;0.30;;;;;;;9.63;56.80;95926.00;5132722;27;20434;-53
2022/10/30 04:03:30;;;;;;;0.40;0.20;;;;;;;10.21;56.52;96023.31;5133290;27;20421;-53
2022/10/30 04:06:00;;;;;;;0.40;0.23;;;;;;;10.18;57.18;96013.22;5132748;27;20442;-54
2022/10/30 04:08:28;;;;;;;0.40;0.30;;;;;;;10.19;57.10;96020.91;5133164;27;20857;-53
2022/10/30 04:10:56;;;;;;;0.40;0.30;;;;;;;10.30;56.94;96024.47;5133088;27;20436;-53
2022/10/30 04:13:24;;;;;;;0.37;0.23;;;;;;;10.31;56.67;96017.31;5132365;27;20986;-53
2022/10/30 04:15:53;;;;;;;0.30;0.30;;;;;;;10.40;56.07;96015.81;5133118;27;20417;-53
2022/10/30 04:18:26;;;;;;;0.40;0.30;;;;;;;10.33;55.70;96025.81;5132888;27;20434;-53
2022/10/30 04:20:54;;;;;;;0.30;0.20;;;;;;;9.58;58.29;95963.81;5132722;27;20426;-53
2022/10/30 04:23:24;;;;;;;0.40;0.30;;;;;;;9.87;58.11;96027.94;5131566;27;20433;-53
2022/10/30 04:25:52;;;;;;;0.30;0.20;;;;;;;10.06;57.44;96015.19;5132229;27;20481;-53
2022/10/30 04:28:21;;;;;;;0.37;0.30;;;;;;;9.69;58.62;96019.50;5132130;27;20429;-53
2022/10/30 04:30:50;;;;;;;0.30;0.20;;;;;;;9.93;58.79;96016.38;5132316;27;20529;-53
2022/10/30 04:33:19;;;;;;;0.50;0.50;;;;;;;9.50;58.77;96016.34;5131831;27;20430;-53
2022/10/30 04:35:47;;;;;;;0.40;0.33;;;;;;;8.79;60.77;96017.19;5132861;27;20444;-54
2022/10/30 04:38:17;;;;;;;0.40;0.33;;;;;;;8.64;61.72;96017.75;5132701;27;20914;-53
2022/10/30 04:40:47;;;;;;;0.60;0.60;;;;;;;8.07;63.45;96021.47;5132430;27;20937;-53
2022/10/30 04:43:15;;;;;;;0.50;0.50;;;;;;;8.31;63.71;96025.63;5132363;27;20434;-53
2022/10/30 04:45:43;;;;;;;0.67;0.67;;;;;;;8.14;63.84;96025.56;5132603;27;20857;-53
2022/10/30 04:48:13;;;;;;;0.57;0.50;;;;;;;8.35;63.04;96026.72;5132450;27;20956;-53
2022/10/30 04:50:42;;;;;;;6.47;0.57;;;;;;;8.64;62.13;96023.03;5132459;27;20455;-53
2022/10/30 04:53:13;;;;;;;0.50;0.40;;;;;;;8.38;63.26;96036.03;5132272;27;20549;-53
2022/10/30 04:55:42;;;;;;;0.40;0.23;;;;;;;8.53;62.62;96015.97;5131692;27;21080;-53
2022/10/30 04:58:13;;;;;;;0.50;0.50;;;;;;;8.28;63.42;96034.81;5132515;27;20440;-53
2022/10/30 05:00:41;;;;;;;0.40;0.30;;;;;;;8.32;63.28;96041.22;5135808;27;20436;-53
2022/10/30 05:03:18;;;;;;;0.40;0.20;;;;;;;8.50;62.32;96021.72;5136532;27;20433;-53
2022/10/30 05:05:47;;;;;;;0.43;0.43;;;;;;;7.37;62.76;95894.25;5136109;27;20430;-53
2022/10/30 05:08:16;;;;;;;0.40;0.30;;;;;;;8.30;63.04;96021.38;5136441;27;20436;-53
2022/10/30 05:10:44;;;;;;;0.40;0.30;;;;;;;8.49;62.91;96029.88;5136339;27;20421;-53
2022/10/30 05:13:13;;;;;;;0.40;0.30;;;;;;;8.43;63.40;96030.81;5136534;27;20423;-53
2022/10/30 05:15:42;;;;;;;2.93;0.50;;;;;;;8.44;63.40;96038.53;5136402;27;20461;-53
2022/10/30 05:18:10;;;;;;;0.57;0.57;;;;;;;7.83;65.71;96030.47;5135215;27;20914;-53
2022/10/30 05:20:38;;;;;;;0.60;0.60;;;;;;;8.19;65.08;96023.00;5135894;27;20929;-52
2022/10/30 05:23:07;;;;;;;0.83;0.60;;;;;;;8.25;65.04;96002.75;5135951;27;20430;-53
2022/10/30 05:25:35;;;;;;;0.50;0.40;;;;;;;8.37;64.60;96029.97;5135928;27;20493;-53
2022/10/30 05:28:06;;;;;;;2.00;1.17;;;;;;;8.12;65.95;96030.25;5136324;27;20437;-52
2022/10/30 05:30:36;;;;;;;0.50;0.40;;;;;;;8.60;64.15;96032.44;5136028;27;20426;-53
2022/10/30 05:33:06;;;;;;;0.60;0.60;;;;;;;9.07;62.39;96037.44;5135360;27;20923;-53
2022/10/30 05:35:35;;;;;;;3.37;1.73;;;;;;;9.44;61.30;96041.13;5135914;27;20481;-52
2022/10/30 05:38:07;;;;;;;0.60;0.40;;;;;;;9.66;60.40;96044.63;5135997;27;20451;-52
2022/10/30 05:40:35;;;;;;;0.60;0.60;;;;;;;9.89;59.59;96046.22;5135599;27;20430;-53
2022/10/30 05:43:04;;;;;;;0.60;0.60;;;;;;;10.14;58.74;96043.91;5135453;27;20434;-53
2022/10/30 05:45:32;;;;;;;0.70;0.70;;;;;;;10.43;57.59;96047.09;5135550;27;20423;-52
2022/10/30 05:48:03;;;;;;;1.50;0.40;;;;;;;10.93;56.23;96052.09;5135712;27;20440;-53
2022/10/30 05:50:32;;;;;;;0.57;0.57;;;;;;;11.23;55.84;96044.34;5135888;27;20798;-53
2022/10/30 05:53:02;;;;;;;2.40;1.70;;;;;;;11.43;55.35;96018.72;5135810;27;20442;-53
2022/10/30 05:55:31;;;;;;;1.97;1.87;;;;;;;11.45;54.72;96035.22;5135692;27;20468;-53
2022/10/30 05:58:01;;;;;;;0.57;0.57;;;;;;;11.61;55.36;96028.13;5135789;27;20430;-53
2022/10/30 06:00:31;;;;;;;0.60;0.60;;;;;;;11.66;54.89;96024.69;5135452;27;20516;-53
2022/10/30 06:03:01;;;;;;;1.23;1.13;;;;;;;12.09;53.94;96022.50;5135266;27;20433;-53
2022/10/30 06:05:32;;;;;;;0.50;0.50;;;;;;;12.26;53.36;96021.50;5135708;27;20428;-53
2022/10/30 06:08:00;;;;;;;1.13;0.70;;;;;;;12.52;52.52;96023.94;5135289;27;20433;-54
2022/10/30 06:10:29;;;;;;;0.80;0.40;;;;;;;13.23;52.06;96024.78;5134862;27;20509;-55
2022/10/30 06:12:59;;;;;;;1.00;0.77;;;;;;;13.05;51.04;96024.50;5134591;27;20434;-55
2022/10/30 06:15:29;;;;;;;1.27;1.17;;;;;;;12.84;50.92;95998.97;5135134;27;20533;-55
2022/10/30 06:17:58;;;;;;;0.50;0.50;;;;;;;13.20;50.59;96019.19;5135117;27;20429;-55
2022/10/30 06:20:30;;;;;;;10.37;2.13;;;;;;;13.96;49.62;95995.81;5135227;27;20414;-55
2022/10/30 06:23:00;;;;;;;0.67;0.50;;;;;;;14.07;48.74;96029.34;5135041;27;20429;-55
2022/10/30 06:25:29;;;;;;;1.23;1.23;;;;;;;14.46;48.35;96022.25;5134427;27;20480;-55
2022/10/30 06:27:59;;;;;;;0.60;0.60;;;;;;;14.38;48.48;96024.69;5134848;27;20438;-55
2022/10/30 06:30:28;;;;;;;1.03;0.97;;;;;;;14.97;47.65;96022.69;5134295;27;20981;-55
2022/10/30 06:32:58;;;;;;;0.47;0.40;;;;;;;14.87;47.59;96017.44;5134766;27;20437;-56
2022/10/30 06:35:29;;;;;;;0.50;0.30;;;;;;;15.41;46.79;96022.53;5134166;27;20468;-56
2022/10/30 06:37:58;;;;;;;0.70;0.70;;;;;;;15.55;46.02;96015.50;5134209;27;20491;-56
2022/10/30 06:40:28;;;;;;;1.60;1.50;;;;;;;15.05;47.48;96026.63;5134423;27;20990;-57
2022/10/30 06:42:57;;;;;;;0.60;0.50;;;;;;;15.12;46.44;95993.19;5134801;27;20434;-56
2022/10/30 06:45:26;;;;;;;1.07;0.77;;;;;;;15.78;45.76;96008.56;5134464;27;20422;-53
2022/10/30 06:47:54;;;;;;;1.27;1.23;;;;;;;16.08;44.92;96007.41;5134736;27;20430;-67
2022/10/30 06:50:24;;;;;;;1.10;1.00;;;;;;;16.45;44.13;96010.91;5134236;27;20426;-54
2022/10/30 06:52:54;;;;;;;1.33;1.03;;;;;;;15.77;45.58;96009.66;5134510;27;20467;-55
2022/10/30 06:55:23;;;;;;;0.60;0.60;;;;;;;16.69;43.91;95989.47;5134017;27;20484;-55
2022/10/30 06:57:55;;;;;;;0.70;0.70;;;;;;;17.14;42.66;96004.81;5134648;27;20419;-53
2022/10/30 07:00:24;;;;;;;0.73;0.67;;;;;;;17.64;42.74;96005.81;5134073;27;20495;-54
2022/10/30 07:02:57;;;;;;;1.43;1.43;;;;;;;17.65;42.19;96003.94;5133844;27;20476;-54
2022/10/30 07:05:26;;;;;;;1.30;1.20;;;;;;;17.41;42.37;96004.06;5133780;27;20457;-54
2022/10/30 07:07:57;;;;;;;0.60;0.60;;;;;;;18.28;41.83;95998.63;5133650;27;20432;-53
2022/10/30 07:10:29;;;;;;;0.60;0.60;;;;;;;18.79;40.79;96004.50;5133675;27;20431;-55
2022/10/30 07:12:58;;;;;;;0.50;0.40;;;;;;;18.11;40.85;95977.00;5133663;27;20431;-54
2022/10/30 07:15:27;;;;;;;1.83;1.03;;;;;;;17.93;41.52;96000.16;5133725;27;20475;-55
2022/10/30 07:17:57;;;;;;;0.70;0.53;;;;;;;18.89;40.68;95980.09;5133529;27;20451;-55
2022/10/30 07:20:28;;;;;;;1.03;0.90;;;;;;;18.67;40.12;95987.34;5133189;27;20477;-55
2022/10/30 07:22:58;;;;;;;2.60;0.40;;;;;;;19.30;39.50;95982.53;5133032;27;20419;-57
2022/10/30 07:25:26;;;;;;;5.93;0.90;;;;;;;19.43;39.45;95978.25;5132792;27;20468;-58
2022/10/30 07:27:56;;;;;;;1.27;1.27;;;;;;;18.94;39.88;95984.53;5133169;27;20433;-58
2022/10/30 07:30:26;;;;;;;0.40;0.30;;;;;;;19.62;38.64;95984.97;5132359;27;20426;-58
2022/10/30 07:32:59;;;;;;;0.80;0.80;;;;;;;19.59;38.84;95936.38;5132800;27;20422;-56
2022/10/30 07:35:29;;;;;;;0.50;0.30;;;;;;;20.57;37.36;95977.16;5132302;27;20477;-56
2022/10/30 07:38:02;;;;;;;0.63;0.63;;;;;;;20.18;38.29;95981.53;5132699;27;20426;-55
2022/10/30 07:40:30;;;;;;;0.80;0.80;;;;;;;20.96;36.79;95965.41;5132379;27;20418;-56
2022/10/30 07:42:59;;;;;;;0.57;0.53;;;;;;;22.60;38.58;95957.13;5131319;27;20817;-56
2022/10/30 07:45:28;;;;;;;1.20;1.00;;;;;;;21.72;35.37;95961.78;5131139;27;20415;-56
2022/10/30 07:47:57;;;;;;;0.60;0.40;;;;;;;21.93;35.26;95964.56;5131944;27;20423;-55
2022/10/30 07:50:26;;;;;;;1.80;1.70;;;;;;;21.90;36.15;95954.41;5131740;27;20445;-56
2022/10/30 07:52:54;;;;;;;0.50;0.43;;;;;;;22.09;34.99;95954.78;5131591;27;20973;-55
2022/10/30 07:55:24;;;;;;;0.70;0.63;;;;;;;21.82;34.32;95953.31;5131380;27;20942;-55
2022/10/30 07:57:52;;;;;;;0.80;0.60;;;;;;;21.61;35.25;95938.94;5131852;27;20423;-56
2022/10/30 08:00:21;;;;;;;0.63;0.63;;;;;;;22.59;34.77;95930.47;5132192;27;20458;-53
2022/10/30 08:02:50;;;;;;;1.30;1.20;;;;;;;22.41;34.57;95942.50;5132357;27;20548;-54
2022/10/30 08:05:18;;;;;;;9.17;0.80;;;;;;;21.99;34.16;95931.66;5132446;27;20462;-55
2022/10/30 08:07:50;;;;;;;1.63;0.60;;;;;;;22.10;33.73;95942.88;5132453;27;20423;-54
2022/10/30 08:10:18;;;;;;;1.70;1.50;;;;;;;21.56;33.74;95944.53;5131870;27;20919;-55
2022/10/30 08:12:48;;;;;;;0.60;0.60;;;;;;;22.65;33.88;95937.25;5132108;27;20451;-55
2022/10/30 08:15:16;;;;;;;10.70;2.87;;;;;;;22.86;33.96;95937.25;5131866;27;20419;-55
2022/10/30 08:17:45;;;;;;;0.80;0.70;;;;;;;23.22;33.57;95942.78;5131921;27;20474;-55
2022/10/30 08:20:15;;;;;;;0.60;0.60;;;;;;;23.55;31.83;95940.88;5132074;27;20802;-55
2022/10/30 08:22:47;;;;;;;2.50;1.00;;;;;;;23.63;31.64;95945.34;5131756;27;20415;-55
2022/10/30 08:25:17;;;;;;;0.67;0.40;;;;;;;23.61;32.32;95936.00;5131391;27;20463;-55
2022/10/30 08:27:56;;;;;;;0.40;0.30;;;;;;;24.69;31.34;95927.03;5131647;27;20419;-55
2022/10/30 08:30:25;;;;;;;0.60;0.50;;;;;;;24.47;31.76;95919.38;5132129;27;20419;-56
2022/10/30 08:32:57;;;;;;;0.67;0.40;;;;;;;24.06;32.03;95922.38;5131761;27;20484;-56
2022/10/30 08:35:26;;;;;;;0.60;0.60;;;;;;;24.92;30.91;95913.75;5131325;27;20813;-56
2022/10/30 08:37:55;;;;;;;1.13;0.50;;;;;;;25.96;30.37;95910.63;5131546;27;20997;-55
2022/10/30 08:40:24;;;;;;;0.63;0.63;;;;;;;26.05;29.87;95903.06;5132130;27;20419;-56
2022/10/30 08:42:55;;;;;;;0.40;0.30;;;;;;;26.28;29.41;95910.22;5131488;27;20434;-55
2022/10/30 08:45:25;;;;;;;0.70;0.70;;;;;;;25.09;30.50;95861.88;5131706;27;20433;-56
2022/10/30 08:47:59;;;;;;;0.50;0.40;;;;;;;25.85;29.72;95911.16;5131301;27;20422;-56
2022/10/30 08:50:29;;;;;;;1.37;0.73;;;;;;;25.78;29.78;95907.44;5131595;27;20419;-55
2022/10/30 08:53:00;;;;;;;0.60;0.50;;;;;;;27.30;29.70;95894.41;5131356;27;20427;-55
2022/10/30 08:55:30;;;;;;;0.40;0.40;;;;;;;28.87;26.45;95889.81;5131529;27;20422;-55
2022/10/30 08:57:59;;;;;;;2.20;1.93;;;;;;;27.20;28.85;95890.34;5131362;27;20470;-55
2022/10/30 09:00:28;;;;;;;0.40;0.40;;;;;;;27.66;27.72;95875.63;5131413;27;20949;-55
2022/10/30 09:02:57;;;;;;;0.70;0.70;;;;;;;27.12;29.34;95885.13;5131260;27;20434;-55
2022/10/30 09:05:25;;;;;;;1.50;0.70;;;;;;;27.00;28.38;95878.69;5131158;27;20440;-55
2022/10/30 09:07:56;;;;;;;0.70;0.70;;;;;;;27.79;27.75;95861.78;5131811;27;20427;-55
2022/10/30 09:10:26;;;;;;;0.60;0.60;;;;;;;28.03;26.65;95864.16;5131547;27;20684;-55
2022/10/30 09:12:55;;;;;;;0.40;0.40;;;;;;;27.50;26.55;95847.72;5131336;27;20441;-55
2022/10/30 09:15:26;;;;;;;0.40;0.30;;;;;;;27.35;26.52;95826.81;5131574;27;20801;-56
2022/10/30 09:17:58;;;;;;;2.30;0.60;;;;;;;27.62;26.96;95863.09;5131186;27;21024;-56
2022/10/30 09:20:27;;;;;;;0.40;0.30;;;;;;;27.98;26.27;95861.72;5131311;27;20417;-55
2022/10/30 09:22:58;;;;;;;0.40;0.40;;;;;;;28.38;26.42;95831.91;5131263;27;20426;-56
2022/10/30 09:25:26;;;;;;;0.50;0.40;;;;;;;28.85;25.67;95847.69;5131136;27;20474;-56
2022/10/30 09:27:55;;;;;;;0.77;0.77;;;;;;;29.28;24.56;95838.81;5131181;27;20450;-56
2022/10/30 09:30:25;;;;;;;3.80;0.63;;;;;;;30.83;24.06;95839.03;5131091;27;20426;-56
2022/10/30 09:32:57;;;;;;;1.40;0.30;;;;;;;30.74;23.26;95833.13;5130869;27;20431;-56
2022/10/30 09:35:26;;;;;;;0.40;0.37;;;;;;;29.63;24.22;95804.75;5131557;27;20415;-56
2022/10/30 09:37:55;;;;;;;0.73;0.73;;;;;;;30.48;25.54;95819.75;5130831;27;20465;-56
2022/10/30 09:40:34;;;;;;;0.40;0.30;;;;;;;30.63;24.71;95816.69;5130922;27;20422;-56
2022/10/30 09:43:14;;;;;;;0.30;0.23;;;;;;;29.97;23.68;95808.91;5130657;27;20419;-56
2022/10/30 09:46:15;;;;;;;0.73;0.53;;;;;;;30.02;23.69;95801.16;5131933;27;20422;-56
2022/10/30 09:49:02;;;;;;;0.50;0.30;;;;;;;30.08;23.87;95796.09;5134768;27;20426;-56
2022/10/30 09:51:53;;;;;;;0.40;0.30;;;;;;;31.98;23.92;95792.97;5134599;27;20526;-56
2022/10/30 09:54:34;;;;;;;0.50;0.40;;;;;;;31.50;22.18;95783.66;5134478;27;20826;-55
2022/10/30 09:57:10;;;;;;;0.50;0.43;;;;;;;30.69;24.45;95781.50;5134692;27;20462;-56
2022/10/30 09:59:50;;;;;;;0.50;0.43;;;;;;;31.53;22.79;95780.09;5134476;27;20422;-56
2022/10/30 10:02:32;;;;;;;0.47;0.47;;;;;;;32.60;22.74;95768.50;5134436;27;20448;-56
2022/10/30 10:05:10;;;;;;;0.30;0.30;;;;;;;30.84;22.83;95766.69;5134262;27;20810;-56
2022/10/30 10:07:44;;;;;;;0.40;0.30;;;;;;;30.93;22.95;95761.66;5134540;27;20410;-56
2022/10/30 10:10:20;;;;;;;0.40;0.30;;;;;;;31.32;22.92;95751.50;5134328;27;20426;-56
2022/10/30 10:12:50;;;;;;;0.30;0.30;;;;;;;30.91;22.26;95692.84;5134591;27;20414;-56
2022/10/30 10:15:34;;;;;;;0.50;0.50;;;;;;;32.10;21.81;95734.22;5134382;27;20508;-56
2022/10/30 10:18:12;;;;;;;0.40;0.30;;;;;;;32.31;21.48;95728.66;5134376;27;20461;-56
2022/10/30 10:20:44;;;;;;;0.40;0.40;;;;;;;31.92;21.97;95724.06;5134025;27;20426;-56
2022/10/30 10:23:18;;;;;;;0.63;0.53;;;;;;;31.96;23.14;95726.75;5134299;27;20423;-56
2022/10/30 10:25:53;;;;;;;0.40;0.30;;;;;;;32.09;21.97;95716.97;5133844;27;20477;-57
2022/10/30 10:28:46;;;;;;;0.40;0.40;;;;;;;32.18;21.64;95711.06;5133754;27;20436;-55
2022/10/30 10:31:38;;;;;;;0.30;0.30;;;;;;;33.38;21.76;95705.59;5134188;27;20430;-56
2022/10/30 10:34:40;;;;;;;0.40;0.30;;;;;;;32.80;21.62;95711.13;5133830;27;20856;-56
2022/10/30 10:37:20;;;;;;;0.40;0.40;;;;;;;32.24;21.36;95701.22;5133891;27;20836;-56
2022/10/30 10:40:02;;;;;;;0.40;0.37;;;;;;;33.05;21.37;95689.78;5133659;27;20431;-56
2022/10/30 10:42:41;;;;;;;0.47;0.47;;;;;;;32.09;21.42;95697.75;5133867;27;20414;-57
2022/10/30 10:45:24;;;;;;;0.50;0.50;;;;;;;32.59;21.55;95690.88;5133582;27;20430;-57
2022/10/30 10:48:17;;;;;;;0.40;0.40;;;;;;;32.76;20.80;95688.41;5133469;27;20426;-57
2022/10/30 10:50:52;;;;;;;0.60;0.40;;;;;;;33.73;21.09;95683.28;5133426;27;20936;-57
2022/10/30 10:53:26;;;;;;;0.50;0.30;;;;;;;33.66;20.43;95680.59;5133588;27;20783;-57
2022/10/30 10:55:58;;;;;;;1.07;0.70;;;;;;;34.78;20.51;95674.91;5133414;27;20414;-57
2022/10/30 10:58:31;;;;;;;0.40;0.40;;;;;;;34.62;19.26;95668.44;5132754;27;20485;-57
2022/10/30 11:01:00;;;;;;;1.87;0.40;;;;;;;33.97;20.13;95666.91;5133188;27;20427;-57
2022/10/30 11:03:43;;;;;;;0.40;0.30;;;;;;;33.39;19.67;95663.19;5133346;27;20475;-57
2022/10/30 11:06:21;;;;;;;0.40;0.33;;;;;;;33.31;20.36;95653.44;5133375;27;20196;-57
2022/10/30 11:08:52;;;;;;;0.30;0.20;;;;;;;34.60;19.37;95649.59;5133005;27;20442;-57
2022/10/30 11:11:20;;;;;;;0.57;0.30;;;;;;;33.77;19.67;95642.00;5132925;27;20185;-57
2022/10/30 11:13:50;;;;;;;0.50;0.40;;;;;;;34.19;19.83;95646.22;5133843;27;20192;-57
2022/10/30 11:16:27;;;;;;;0.30;0.27;;;;;;;34.13;20.32;95628.63;5133624;27;20189;-57
2022/10/30 11:19:00;;;;;;;0.50;0.40;;;;;;;33.54;19.18;95604.13;5133542;27;20231;-57
2022/10/30 11:21:35;;;;;;;1.23;1.00;;;;;;;33.98;20.08;95624.47;5133419;27;20185;-57
2022/10/30 11:24:03;;;;;;;0.53;0.53;;;;;;;34.69;19.43;95627.03;5133618;27;20192;-57
2022/10/30 11:26:34;;;;;;;0.30;0.20;;;;;;;35.17;19.31;95624.69;5133259;27;20225;-57
2022/10/30 11:29:11;;;;;;;0.40;0.30;;;;;;;34.45;19.69;95615.97;5133315;27;20203;-56
2022/10/30 11:31:41;;;;;;;0.30;0.30;;;;;;;34.62;18.70;95614.16;5133165;27;20184;-57
2022/10/30 11:34:31;;;;;;;0.30;0.20;;;;;;;34.05;19.22;95608.66;5133525;27;20495;-56
2022/10/30 11:37:02;;;;;;;0.60;0.60;;;;;;;34.74;18.56;95588.00;5133547;27;20543;-57
2022/10/30 11:39:32;;;;;;;0.30;0.30;;;;;;;35.00;18.38;95598.97;5133045;27;20218;-58
2022/10/30 11:42:05;;;;;;;0.30;0.30;;;;;;;34.29;20.09;95599.28;5133364;27;20184;-58
2022/10/30 11:44:38;;;;;;;0.30;0.27;;;;;;;34.62;18.68;95592.13;5133140;27;20577;-58
2022/10/30 11:47:12;;;;;;;1.13;0.57;;;;;;;34.42;18.82;95593.97;5133093;27;20268;-58
2022/10/30 11:49:45;;;;;;;0.30;0.30;;;;;;;34.56;18.94;95577.25;5132841;27;20274;-58
2022/10/30 11:52:18;;;;;;;0.30;0.30;;;;;;;33.81;19.03;95583.00;5132821;27;20279;-58
2022/10/30 11:54:52;;;;;;;0.63;0.63;;;;;;;33.82;19.35;95579.09;5132878;27;20192;-58